sensor_id;sensor_type;location;lat;lon;timestamp;temperature;humidity
17813;DHT22;9030;50.792;8.320;2023-04-24T00:00:57;9.00;99.90
17813;DHT22;9030;50.792;8.320;2023-04-24T00:03:25;9.10;99.90
17813;DHT22;9030;50.792;8.320;2023-04-24T00:05:53;9.10;99.90
17813;DHT22;9030;50.792;8.320;2023-04-24T00:08:20;9.10;99.90
17813;DHT22;9030;50.792;8.320;2023-04-24T00:10:48;9.10;99.90
17813;DHT22;9030;50.792;8.320;2023-04-24T00:13:14;9.10;99.90
17813;DHT22;9030;50.792;8.320;2023-04-24T00:15:41;9.10;99.90
17813;DHT22;9030;50.792;8.320;2023-04-24T00:18:08;9.10;99.90
17813;DHT22;9030;50.792;8.320;2023-04-24T00:20:36;9.10;99.90
17813;DHT22;9030;50.792;8.320;2023-04-24T00:23:03;9.10;99.90
17813;DHT22;9030;50.792;8.320;2023-04-24T00:25:29;9.10;99.90
17813;DHT22;9030;50.792;8.320;2023-04-24T00:27:56;9.20;99.90
17813;DHT22;9030;50.792;8.320;2023-04-24T00:30:23;9.20;99.90
17813;DHT22;9030;50.792;8.320;2023-04-24T00:32:49;9.20;99.90
17813;DHT22;9030;50.792;8.320;2023-04-24T00:35:16;9.10;99.90
17813;DHT22;9030;50.792;8.320;2023-04-24T00:37:46;9.10;99.90
17813;DHT22;9030;50.792;8.320;2023-04-24T00:40:13;9.20;99.90
17813;DHT22;9030;50.792;8.320;2023-04-24T00:42:40;9.20;99.90
17813;DHT22;9030;50.792;8.320;2023-04-24T00:45:08;9.20;99.90
17813;DHT22;9030;50.792;8.320;2023-04-24T00:47:34;9.20;99.90
17813;DHT22;9030;50.792;8.320;2023-04-24T00:50:02;9.20;99.90
17813;DHT22;9030;50.792;8.320;2023-04-24T00:52:29;9.20;99.90
17813;DHT22;9030;50.792;8.320;2023-04-24T00:54:58;9.20;99.90
17813;DHT22;9030;50.792;8.320;2023-04-24T00:57:24;9.20;99.90
17813;DHT22;9030;50.792;8.320;2023-04-24T00:59:52;9.20;99.90
17813;DHT22;9030;50.792;8.320;2023-04-24T01:02:19;9.20;99.90
17813;DHT22;9030;50.792;8.320;2023-04-24T01:04:48;9.30;99.90
17813;DHT22;9030;50.792;8.320;2023-04-24T01:07:17;9.30;99.90
17813;DHT22;9030;50.792;8.320;2023-04-24T01:09:45;9.40;99.90
17813;DHT22;9030;50.792;8.320;2023-04-24T01:12:16;9.40;99.90
17813;DHT22;9030;50.792;8.320;2023-04-24T01:14:42;9.40;99.90
17813;DHT22;9030;50.792;8.320;2023-04-24T01:17:09;9.40;99.90
17813;DHT22;9030;50.792;8.320;2023-04-24T01:19:37;9.40;99.90
17813;DHT22;9030;50.792;8.320;2023-04-24T01:22:10;9.50;99.90
17813;DHT22;9030;50.792;8.320;2023-04-24T01:24:37;9.50;99.90
17813;DHT22;9030;50.792;8.320;2023-04-24T01:27:04;9.50;99.90
17813;DHT22;9030;50.792;8.320;2023-04-24T01:29:31;9.50;99.90
17813;DHT22;9030;50.792;8.320;2023-04-24T01:31:58;9.60;99.90
17813;DHT22;9030;50.792;8.320;2023-04-24T01:34:26;9.60;99.90
17813;DHT22;9030;50.792;8.320;2023-04-24T01:36:52;9.60;99.90
17813;DHT22;9030;50.792;8.320;2023-04-24T01:39:20;9.60;99.90
17813;DHT22;9030;50.792;8.320;2023-04-24T01:41:48;9.60;99.90
17813;DHT22;9030;50.792;8.320;2023-04-24T01:44:16;9.60;99.90
17813;DHT22;9030;50.792;8.320;2023-04-24T01:46:43;9.50;99.90
17813;DHT22;9030;50.792;8.320;2023-04-24T01:49:10;9.50;99.90
17813;DHT22;9030;50.792;8.320;2023-04-24T01:51:37;9.60;99.90
17813;DHT22;9030;50.792;8.320;2023-04-24T01:54:04;9.50;99.90
17813;DHT22;9030;50.792;8.320;2023-04-24T01:56:33;9.50;99.90
17813;DHT22;9030;50.792;8.320;2023-04-24T01:59:02;9.50;99.90
17813;DHT22;9030;50.792;8.320;2023-04-24T02:01:34;9.50;99.90
17813;DHT22;9030;50.792;8.320;2023-04-24T02:04:02;9.50;99.90
17813;DHT22;9030;50.792;8.320;2023-04-24T02:06:29;9.50;99.90
17813;DHT22;9030;50.792;8.320;2023-04-24T02:08:57;9.50;99.90
17813;DHT22;9030;50.792;8.320;2023-04-24T02:11:24;9.40;99.90
17813;DHT22;9030;50.792;8.320;2023-04-24T02:13:52;9.40;99.90
17813;DHT22;9030;50.792;8.320;2023-04-24T02:16:19;9.40;99.90
17813;DHT22;9030;50.792;8.320;2023-04-24T02:18:46;9.40;99.90
17813;DHT22;9030;50.792;8.320;2023-04-24T02:21:13;9.30;99.90
17813;DHT22;9030;50.792;8.320;2023-04-24T02:23:40;9.40;99.90
17813;DHT22;9030;50.792;8.320;2023-04-24T02:26:06;9.30;99.90
17813;DHT22;9030;50.792;8.320;2023-04-24T02:28:33;9.30;99.90
17813;DHT22;9030;50.792;8.320;2023-04-24T02:31:01;9.30;99.90
17813;DHT22;9030;50.792;8.320;2023-04-24T02:33:28;9.30;99.90
17813;DHT22;9030;50.792;8.320;2023-04-24T02:35:55;9.30;99.90
17813;DHT22;9030;50.792;8.320;2023-04-24T02:38:22;9.30;99.90
17813;DHT22;9030;50.792;8.320;2023-04-24T02:40:48;9.30;99.90
17813;DHT22;9030;50.792;8.320;2023-04-24T02:43:15;9.30;99.90
17813;DHT22;9030;50.792;8.320;2023-04-24T02:45:42;9.30;99.90
17813;DHT22;9030;50.792;8.320;2023-04-24T02:48:10;9.30;99.90
17813;DHT22;9030;50.792;8.320;2023-04-24T02:50:36;9.30;99.90
17813;DHT22;9030;50.792;8.320;2023-04-24T02:53:03;9.30;99.90
17813;DHT22;9030;50.792;8.320;2023-04-24T02:55:30;9.30;99.90
17813;DHT22;9030;50.792;8.320;2023-04-24T02:57:57;9.30;99.90
17813;DHT22;9030;50.792;8.320;2023-04-24T03:00:24;9.20;99.90
17813;DHT22;9030;50.792;8.320;2023-04-24T03:02:50;9.20;99.90
17813;DHT22;9030;50.792;8.320;2023-04-24T03:05:18;9.20;99.90
17813;DHT22;9030;50.792;8.320;2023-04-24T03:07:45;9.20;99.90
17813;DHT22;9030;50.792;8.320;2023-04-24T03:10:12;9.20;99.90
17813;DHT22;9030;50.792;8.320;2023-04-24T03:12:39;9.20;99.90
17813;DHT22;9030;50.792;8.320;2023-04-24T03:15:07;9.20;99.90
17813;DHT22;9030;50.792;8.320;2023-04-24T03:17:34;9.20;99.90
17813;DHT22;9030;50.792;8.320;2023-04-24T03:20:01;9.20;99.90
17813;DHT22;9030;50.792;8.320;2023-04-24T03:22:29;9.20;99.90
17813;DHT22;9030;50.792;8.320;2023-04-24T03:24:58;9.20;99.90
17813;DHT22;9030;50.792;8.320;2023-04-24T03:27:25;9.20;99.90
17813;DHT22;9030;50.792;8.320;2023-04-24T03:29:51;9.20;99.90
17813;DHT22;9030;50.792;8.320;2023-04-24T03:32:20;9.10;99.90
17813;DHT22;9030;50.792;8.320;2023-04-24T03:34:47;9.10;99.90
17813;DHT22;9030;50.792;8.320;2023-04-24T03:37:16;9.10;99.90
17813;DHT22;9030;50.792;8.320;2023-04-24T03:39:44;9.10;99.90
17813;DHT22;9030;50.792;8.320;2023-04-24T03:42:11;9.00;99.90
17813;DHT22;9030;50.792;8.320;2023-04-24T03:44:37;9.00;99.90
17813;DHT22;9030;50.792;8.320;2023-04-24T03:47:04;8.90;99.90
17813;DHT22;9030;50.792;8.320;2023-04-24T03:49:31;8.90;99.90
17813;DHT22;9030;50.792;8.320;2023-04-24T03:51:57;8.90;99.90
17813;DHT22;9030;50.792;8.320;2023-04-24T03:54:24;8.80;99.90
17813;DHT22;9030;50.792;8.320;2023-04-24T03:56:52;8.80;99.90
17813;DHT22;9030;50.792;8.320;2023-04-24T03:59:19;8.80;99.90
17813;DHT22;9030;50.792;8.320;2023-04-24T04:01:45;8.80;99.90
17813;DHT22;9030;50.792;8.320;2023-04-24T04:04:13;8.70;99.90
17813;DHT22;9030;50.792;8.320;2023-04-24T04:06:40;8.70;99.90
17813;DHT22;9030;50.792;8.320;2023-04-24T04:09:07;8.60;99.90
17813;DHT22;9030;50.792;8.320;2023-04-24T04:11:34;8.50;99.90
17813;DHT22;9030;50.792;8.320;2023-04-24T04:14:03;8.40;99.90
17813;DHT22;9030;50.792;8.320;2023-04-24T04:16:29;8.30;99.90
17813;DHT22;9030;50.792;8.320;2023-04-24T04:18:56;8.20;99.90
17813;DHT22;9030;50.792;8.320;2023-04-24T04:21:24;8.10;99.90
17813;DHT22;9030;50.792;8.320;2023-04-24T04:23:51;8.00;99.90
17813;DHT22;9030;50.792;8.320;2023-04-24T04:26:18;7.90;99.90
17813;DHT22;9030;50.792;8.320;2023-04-24T04:28:46;7.80;99.90
17813;DHT22;9030;50.792;8.320;2023-04-24T04:31:15;7.70;99.90
17813;DHT22;9030;50.792;8.320;2023-04-24T04:33:42;7.60;99.90
17813;DHT22;9030;50.792;8.320;2023-04-24T04:36:09;7.60;99.90
17813;DHT22;9030;50.792;8.320;2023-04-24T04:38:35;7.60;99.90
17813;DHT22;9030;50.792;8.320;2023-04-24T04:41:02;7.40;99.90
17813;DHT22;9030;50.792;8.320;2023-04-24T04:43:29;7.40;99.90
17813;DHT22;9030;50.792;8.320;2023-04-24T04:45:57;7.30;99.90
17813;DHT22;9030;50.792;8.320;2023-04-24T04:48:25;7.30;99.90
17813;DHT22;9030;50.792;8.320;2023-04-24T04:50:52;7.30;99.90
17813;DHT22;9030;50.792;8.320;2023-04-24T04:53:19;7.20;99.90
17813;DHT22;9030;50.792;8.320;2023-04-24T04:55:46;7.20;99.90
17813;DHT22;9030;50.792;8.320;2023-04-24T04:58:13;7.20;99.90
17813;DHT22;9030;50.792;8.320;2023-04-24T05:00:40;7.10;99.90
17813;DHT22;9030;50.792;8.320;2023-04-24T05:03:07;7.20;99.90
17813;DHT22;9030;50.792;8.320;2023-04-24T05:05:35;7.30;99.90
17813;DHT22;9030;50.792;8.320;2023-04-24T05:08:06;7.40;99.90
17813;DHT22;9030;50.792;8.320;2023-04-24T05:10:32;7.40;99.90
17813;DHT22;9030;50.792;8.320;2023-04-24T05:12:59;7.50;99.90
17813;DHT22;9030;50.792;8.320;2023-04-24T05:15:26;7.60;99.90
17813;DHT22;9030;50.792;8.320;2023-04-24T05:17:53;7.70;99.90
17813;DHT22;9030;50.792;8.320;2023-04-24T05:20:19;7.70;99.90
17813;DHT22;9030;50.792;8.320;2023-04-24T05:22:47;7.90;99.90
17813;DHT22;9030;50.792;8.320;2023-04-24T05:25:15;8.00;99.90
17813;DHT22;9030;50.792;8.320;2023-04-24T05:27:42;8.10;99.90
17813;DHT22;9030;50.792;8.320;2023-04-24T05:30:10;8.20;99.90
17813;DHT22;9030;50.792;8.320;2023-04-24T05:32:37;8.30;99.90
17813;DHT22;9030;50.792;8.320;2023-04-24T05:35:04;8.40;99.90
17813;DHT22;9030;50.792;8.320;2023-04-24T05:37:31;8.50;99.90
17813;DHT22;9030;50.792;8.320;2023-04-24T05:40:00;8.60;99.90
17813;DHT22;9030;50.792;8.320;2023-04-24T05:42:26;8.80;99.90
17813;DHT22;9030;50.792;8.320;2023-04-24T05:44:53;8.70;99.90
17813;DHT22;9030;50.792;8.320;2023-04-24T05:47:20;8.60;99.90
17813;DHT22;9030;50.792;8.320;2023-04-24T05:49:47;8.60;99.90
17813;DHT22;9030;50.792;8.320;2023-04-24T05:52:13;8.90;99.90
17813;DHT22;9030;50.792;8.320;2023-04-24T05:54:40;8.80;99.90
17813;DHT22;9030;50.792;8.320;2023-04-24T05:57:08;8.90;99.90
17813;DHT22;9030;50.792;8.320;2023-04-24T05:59:37;8.90;99.90
17813;DHT22;9030;50.792;8.320;2023-04-24T06:02:04;9.10;99.90
17813;DHT22;9030;50.792;8.320;2023-04-24T06:04:32;9.20;99.90
17813;DHT22;9030;50.792;8.320;2023-04-24T06:06:58;9.40;99.90
17813;DHT22;9030;50.792;8.320;2023-04-24T06:09:25;9.50;99.90
17813;DHT22;9030;50.792;8.320;2023-04-24T06:11:52;9.40;99.90
17813;DHT22;9030;50.792;8.320;2023-04-24T06:14:20;9.40;99.90
17813;DHT22;9030;50.792;8.320;2023-04-24T06:16:47;9.40;99.90
17813;DHT22;9030;50.792;8.320;2023-04-24T06:19:14;9.20;99.90
17813;DHT22;9030;50.792;8.320;2023-04-24T06:21:40;9.00;99.90
17813;DHT22;9030;50.792;8.320;2023-04-24T06:24:07;8.90;99.90
17813;DHT22;9030;50.792;8.320;2023-04-24T06:26:34;8.70;99.90
17813;DHT22;9030;50.792;8.320;2023-04-24T06:29:01;8.80;99.90
17813;DHT22;9030;50.792;8.320;2023-04-24T06:31:29;8.90;99.90
17813;DHT22;9030;50.792;8.320;2023-04-24T06:33:56;9.00;99.90
17813;DHT22;9030;50.792;8.320;2023-04-24T06:36:22;9.40;99.90
17813;DHT22;9030;50.792;8.320;2023-04-24T06:38:49;9.60;99.90
17813;DHT22;9030;50.792;8.320;2023-04-24T06:41:16;9.90;99.90
17813;DHT22;9030;50.792;8.320;2023-04-24T06:43:42;10.20;99.90
17813;DHT22;9030;50.792;8.320;2023-04-24T06:46:10;10.60;99.90
17813;DHT22;9030;50.792;8.320;2023-04-24T06:48:39;10.50;99.90
17813;DHT22;9030;50.792;8.320;2023-04-24T06:51:05;9.90;99.90
17813;DHT22;9030;50.792;8.320;2023-04-24T06:53:32;9.70;99.90
17813;DHT22;9030;50.792;8.320;2023-04-24T06:55:59;9.30;99.90
17813;DHT22;9030;50.792;8.320;2023-04-24T06:58:26;9.00;99.90
17813;DHT22;9030;50.792;8.320;2023-04-24T07:00:53;9.00;99.90
17813;DHT22;9030;50.792;8.320;2023-04-24T07:03:19;9.00;99.90
17813;DHT22;9030;50.792;8.320;2023-04-24T07:05:48;9.10;99.90
17813;DHT22;9030;50.792;8.320;2023-04-24T07:08:15;9.20;99.90
17813;DHT22;9030;50.792;8.320;2023-04-24T07:10:43;9.20;99.90
17813;DHT22;9030;50.792;8.320;2023-04-24T07:13:10;9.10;99.90
17813;DHT22;9030;50.792;8.320;2023-04-24T07:15:37;9.10;99.90
17813;DHT22;9030;50.792;8.320;2023-04-24T07:18:04;9.10;99.90
17813;DHT22;9030;50.792;8.320;2023-04-24T07:20:31;9.20;99.90
17813;DHT22;9030;50.792;8.320;2023-04-24T07:23:00;9.20;99.90
17813;DHT22;9030;50.792;8.320;2023-04-24T07:25:26;9.20;99.90
17813;DHT22;9030;50.792;8.320;2023-04-24T07:27:53;9.30;99.90
17813;DHT22;9030;50.792;8.320;2023-04-24T07:30:20;9.20;99.90
17813;DHT22;9030;50.792;8.320;2023-04-24T07:32:47;9.20;99.90
17813;DHT22;9030;50.792;8.320;2023-04-24T07:35:13;9.10;99.90
17813;DHT22;9030;50.792;8.320;2023-04-24T07:37:40;9.10;99.90
17813;DHT22;9030;50.792;8.320;2023-04-24T07:40:12;9.10;99.90
17813;DHT22;9030;50.792;8.320;2023-04-24T07:42:39;9.00;99.90
17813;DHT22;9030;50.792;8.320;2023-04-24T07:45:07;8.90;99.90
17813;DHT22;9030;50.792;8.320;2023-04-24T07:47:34;8.90;99.90
17813;DHT22;9030;50.792;8.320;2023-04-24T07:50:02;8.90;99.90
17813;DHT22;9030;50.792;8.320;2023-04-24T07:52:28;9.00;99.90
17813;DHT22;9030;50.792;8.320;2023-04-24T07:54:56;9.00;99.90
17813;DHT22;9030;50.792;8.320;2023-04-24T07:57:27;9.00;99.90
17813;DHT22;9030;50.792;8.320;2023-04-24T07:59:54;9.00;99.90
17813;DHT22;9030;50.792;8.320;2023-04-24T08:02:21;9.00;99.90
17813;DHT22;9030;50.792;8.320;2023-04-24T08:04:51;9.00;99.90
17813;DHT22;9030;50.792;8.320;2023-04-24T08:07:18;9.00;99.90
17813;DHT22;9030;50.792;8.320;2023-04-24T08:09:45;9.00;99.90
17813;DHT22;9030;50.792;8.320;2023-04-24T08:12:11;9.00;99.90
17813;DHT22;9030;50.792;8.320;2023-04-24T08:14:40;8.90;99.90
17813;DHT22;9030;50.792;8.320;2023-04-24T08:17:06;9.00;99.90
17813;DHT22;9030;50.792;8.320;2023-04-24T08:19:33;9.00;99.90
17813;DHT22;9030;50.792;8.320;2023-04-24T08:22:00;8.90;99.90
17813;DHT22;9030;50.792;8.320;2023-04-24T08:24:27;9.10;99.90
17813;DHT22;9030;50.792;8.320;2023-04-24T08:26:53;9.20;99.90
17813;DHT22;9030;50.792;8.320;2023-04-24T08:29:22;9.30;99.90
17813;DHT22;9030;50.792;8.320;2023-04-24T08:31:50;9.20;99.90
17813;DHT22;9030;50.792;8.320;2023-04-24T08:34:17;9.10;99.90
17813;DHT22;9030;50.792;8.320;2023-04-24T08:36:43;9.10;99.90
17813;DHT22;9030;50.792;8.320;2023-04-24T08:39:10;9.20;99.90
17813;DHT22;9030;50.792;8.320;2023-04-24T08:41:37;9.30;99.90
17813;DHT22;9030;50.792;8.320;2023-04-24T08:44:04;9.40;99.90
17813;DHT22;9030;50.792;8.320;2023-04-24T08:46:32;9.30;99.90
17813;DHT22;9030;50.792;8.320;2023-04-24T08:49:01;9.40;99.90
17813;DHT22;9030;50.792;8.320;2023-04-24T08:51:29;9.40;99.90
17813;DHT22;9030;50.792;8.320;2023-04-24T08:53:56;9.40;99.90
17813;DHT22;9030;50.792;8.320;2023-04-24T08:56:23;9.30;99.90
17813;DHT22;9030;50.792;8.320;2023-04-24T08:58:51;9.10;99.90
17813;DHT22;9030;50.792;8.320;2023-04-24T09:01:19;9.00;99.90
17813;DHT22;9030;50.792;8.320;2023-04-24T09:03:48;9.00;99.90
17813;DHT22;9030;50.792;8.320;2023-04-24T09:06:17;9.10;99.90
17813;DHT22;9030;50.792;8.320;2023-04-24T09:08:45;9.10;99.90
17813;DHT22;9030;50.792;8.320;2023-04-24T09:11:12;9.00;99.90
17813;DHT22;9030;50.792;8.320;2023-04-24T09:13:39;9.00;99.90
17813;DHT22;9030;50.792;8.320;2023-04-24T09:16:05;9.00;99.90
17813;DHT22;9030;50.792;8.320;2023-04-24T09:18:32;8.90;99.90
17813;DHT22;9030;50.792;8.320;2023-04-24T09:21:02;8.80;99.90
17813;DHT22;9030;50.792;8.320;2023-04-24T09:23:31;8.70;99.90
17813;DHT22;9030;50.792;8.320;2023-04-24T09:25:59;8.60;99.90
17813;DHT22;9030;50.792;8.320;2023-04-24T09:28:28;8.70;99.90
17813;DHT22;9030;50.792;8.320;2023-04-24T09:31:06;8.60;99.90
17813;DHT22;9030;50.792;8.320;2023-04-24T09:33:34;8.60;99.90
17813;DHT22;9030;50.792;8.320;2023-04-24T09:36:01;8.70;99.90
17813;DHT22;9030;50.792;8.320;2023-04-24T09:38:34;8.70;99.90
17813;DHT22;9030;50.792;8.320;2023-04-24T09:41:02;8.60;99.90
17813;DHT22;9030;50.792;8.320;2023-04-24T09:43:31;8.50;99.90
17813;DHT22;9030;50.792;8.320;2023-04-24T09:45:58;8.40;99.90
17813;DHT22;9030;50.792;8.320;2023-04-24T09:48:34;8.30;99.90
17813;DHT22;9030;50.792;8.320;2023-04-24T09:51:02;8.30;99.90
17813;DHT22;9030;50.792;8.320;2023-04-24T09:53:30;8.20;99.90
17813;DHT22;9030;50.792;8.320;2023-04-24T09:56:02;8.10;99.90
17813;DHT22;9030;50.792;8.320;2023-04-24T09:58:29;8.10;99.90
17813;DHT22;9030;50.792;8.320;2023-04-24T10:00:56;8.20;99.90
17813;DHT22;9030;50.792;8.320;2023-04-24T10:03:24;8.10;99.90
17813;DHT22;9030;50.792;8.320;2023-04-24T10:05:53;8.30;99.90
17813;DHT22;9030;50.792;8.320;2023-04-24T10:08:20;8.20;99.90
17813;DHT22;9030;50.792;8.320;2023-04-24T10:10:47;7.90;99.90
17813;DHT22;9030;50.792;8.320;2023-04-24T10:13:16;7.80;99.90
17813;DHT22;9030;50.792;8.320;2023-04-24T10:15:43;7.70;99.90
17813;DHT22;9030;50.792;8.320;2023-04-24T10:18:10;7.80;99.90
17813;DHT22;9030;50.792;8.320;2023-04-24T10:20:39;8.10;99.90
17813;DHT22;9030;50.792;8.320;2023-04-24T10:23:06;7.90;99.90
17813;DHT22;9030;50.792;8.320;2023-04-24T10:25:34;7.90;99.90
17813;DHT22;9030;50.792;8.320;2023-04-24T10:28:02;8.10;99.90
17813;DHT22;9030;50.792;8.320;2023-04-24T10:30:32;8.10;99.90
17813;DHT22;9030;50.792;8.320;2023-04-24T10:33:01;7.80;99.90
17813;DHT22;9030;50.792;8.320;2023-04-24T10:35:32;7.60;99.90
17813;DHT22;9030;50.792;8.320;2023-04-24T10:38:03;7.90;99.90
17813;DHT22;9030;50.792;8.320;2023-04-24T10:40:33;7.90;99.90
17813;DHT22;9030;50.792;8.320;2023-04-24T10:43:02;8.00;99.90
17813;DHT22;9030;50.792;8.320;2023-04-24T10:45:33;8.20;99.90
17813;DHT22;9030;50.792;8.320;2023-04-24T10:48:02;8.30;99.90
17813;DHT22;9030;50.792;8.320;2023-04-24T10:50:41;8.40;99.90
17813;DHT22;9030;50.792;8.320;2023-04-24T10:53:17;8.30;99.90
17813;DHT22;9030;50.792;8.320;2023-04-24T10:55:46;8.20;99.90
17813;DHT22;9030;50.792;8.320;2023-04-24T10:58:14;8.30;99.90
17813;DHT22;9030;50.792;8.320;2023-04-24T11:00:44;8.00;99.90
17813;DHT22;9030;50.792;8.320;2023-04-24T11:03:25;7.90;99.90
17813;DHT22;9030;50.792;8.320;2023-04-24T11:05:55;8.00;99.90
17813;DHT22;9030;50.792;8.320;2023-04-24T11:08:25;8.10;99.90
17813;DHT22;9030;50.792;8.320;2023-04-24T11:11:01;8.00;99.90
17813;DHT22;9030;50.792;8.320;2023-04-24T11:16:43;8.40;99.90
17813;DHT22;9030;50.792;8.320;2023-04-24T11:19:18;8.60;99.90
17813;DHT22;9030;50.792;8.320;2023-04-24T11:21:47;8.50;99.90
17813;DHT22;9030;50.792;8.320;2023-04-24T11:24:29;8.50;99.90
17813;DHT22;9030;50.792;8.320;2023-04-24T11:26:57;8.40;99.90
17813;DHT22;9030;50.792;8.320;2023-04-24T11:29:42;8.50;99.90
17813;DHT22;9030;50.792;8.320;2023-04-24T11:32:24;8.40;99.90
17813;DHT22;9030;50.792;8.320;2023-04-24T11:34:52;8.20;99.90
17813;DHT22;9030;50.792;8.320;2023-04-24T11:37:20;8.40;99.90
17813;DHT22;9030;50.792;8.320;2023-04-24T11:39:46;8.70;99.90
17813;DHT22;9030;50.792;8.320;2023-04-24T11:42:15;8.80;99.90
17813;DHT22;9030;50.792;8.320;2023-04-24T11:44:42;9.00;99.90
17813;DHT22;9030;50.792;8.320;2023-04-24T11:47:09;8.80;99.90
17813;DHT22;9030;50.792;8.320;2023-04-24T11:49:38;8.60;99.90
17813;DHT22;9030;50.792;8.320;2023-04-24T11:52:05;8.50;99.90
17813;DHT22;9030;50.792;8.320;2023-04-24T11:54:32;8.70;99.90
17813;DHT22;9030;50.792;8.320;2023-04-24T11:56:59;8.70;99.90
17813;DHT22;9030;50.792;8.320;2023-04-24T11:59:25;8.70;99.90
17813;DHT22;9030;50.792;8.320;2023-04-24T12:01:52;8.90;99.90
17813;DHT22;9030;50.792;8.320;2023-04-24T12:04:19;8.90;99.90
17813;DHT22;9030;50.792;8.320;2023-04-24T12:07:11;8.70;99.90
17813;DHT22;9030;50.792;8.320;2023-04-24T12:09:42;8.50;99.90
17813;DHT22;9030;50.792;8.320;2023-04-24T12:12:09;8.40;99.90
17813;DHT22;9030;50.792;8.320;2023-04-24T12:14:47;8.50;99.90
17813;DHT22;9030;50.792;8.320;2023-04-24T12:17:14;8.40;99.90
17813;DHT22;9030;50.792;8.320;2023-04-24T12:19:45;8.60;99.90
17813;DHT22;9030;50.792;8.320;2023-04-24T12:22:14;9.00;99.90
17813;DHT22;9030;50.792;8.320;2023-04-24T12:25:03;9.10;99.90
17813;DHT22;9030;50.792;8.320;2023-04-24T12:27:31;9.60;99.90
17813;DHT22;9030;50.792;8.320;2023-04-24T12:30:00;9.90;99.90
17813;DHT22;9030;50.792;8.320;2023-04-24T12:32:27;9.80;99.90
17813;DHT22;9030;50.792;8.320;2023-04-24T12:34:55;9.80;99.90
17813;DHT22;9030;50.792;8.320;2023-04-24T12:37:24;9.50;99.90
17813;DHT22;9030;50.792;8.320;2023-04-24T12:40:03;9.10;99.90
17813;DHT22;9030;50.792;8.320;2023-04-24T12:42:31;9.20;99.90
17813;DHT22;9030;50.792;8.320;2023-04-24T12:45:00;9.40;99.90
17813;DHT22;9030;50.792;8.320;2023-04-24T12:47:27;9.20;99.90
17813;DHT22;9030;50.792;8.320;2023-04-24T12:49:54;9.10;99.90
17813;DHT22;9030;50.792;8.320;2023-04-24T12:52:21;9.10;99.90
17813;DHT22;9030;50.792;8.320;2023-04-24T12:54:50;8.80;99.90
17813;DHT22;9030;50.792;8.320;2023-04-24T12:57:17;8.60;99.90
17813;DHT22;9030;50.792;8.320;2023-04-24T12:59:44;8.20;99.90
17813;DHT22;9030;50.792;8.320;2023-04-24T13:02:11;8.00;99.90
17813;DHT22;9030;50.792;8.320;2023-04-24T13:04:38;7.60;99.90
17813;DHT22;9030;50.792;8.320;2023-04-24T13:07:05;7.50;99.90
17813;DHT22;9030;50.792;8.320;2023-04-24T13:09:34;7.50;99.90
17813;DHT22;9030;50.792;8.320;2023-04-24T13:12:02;7.50;99.90
17813;DHT22;9030;50.792;8.320;2023-04-24T13:14:31;7.80;99.90
17813;DHT22;9030;50.792;8.320;2023-04-24T13:16:57;7.90;99.90
17813;DHT22;9030;50.792;8.320;2023-04-24T13:19:25;7.90;99.90
17813;DHT22;9030;50.792;8.320;2023-04-24T13:21:53;7.90;99.90
17813;DHT22;9030;50.792;8.320;2023-04-24T13:24:20;8.00;99.90
17813;DHT22;9030;50.792;8.320;2023-04-24T13:26:50;8.40;99.90
17813;DHT22;9030;50.792;8.320;2023-04-24T13:29:18;8.80;99.90
17813;DHT22;9030;50.792;8.320;2023-04-24T13:31:46;9.20;99.90
17813;DHT22;9030;50.792;8.320;2023-04-24T13:34:13;9.80;99.90
17813;DHT22;9030;50.792;8.320;2023-04-24T13:36:39;9.80;99.90
17813;DHT22;9030;50.792;8.320;2023-04-24T13:39:06;9.90;99.90
17813;DHT22;9030;50.792;8.320;2023-04-24T13:41:33;10.00;99.90
17813;DHT22;9030;50.792;8.320;2023-04-24T13:44:00;9.50;99.90
17813;DHT22;9030;50.792;8.320;2023-04-24T13:46:29;9.30;99.90
17813;DHT22;9030;50.792;8.320;2023-04-24T13:48:56;9.40;99.90
17813;DHT22;9030;50.792;8.320;2023-04-24T13:51:23;9.60;99.90
17813;DHT22;9030;50.792;8.320;2023-04-24T13:53:52;10.00;99.90
17813;DHT22;9030;50.792;8.320;2023-04-24T13:56:19;10.20;99.90
17813;DHT22;9030;50.792;8.320;2023-04-24T13:58:45;10.00;99.90
17813;DHT22;9030;50.792;8.320;2023-04-24T14:01:12;9.80;99.90
17813;DHT22;9030;50.792;8.320;2023-04-24T14:03:42;9.60;99.90
17813;DHT22;9030;50.792;8.320;2023-04-24T14:06:09;9.40;99.90
17813;DHT22;9030;50.792;8.320;2023-04-24T14:08:35;9.20;99.90
17813;DHT22;9030;50.792;8.320;2023-04-24T14:11:02;9.10;99.90
17813;DHT22;9030;50.792;8.320;2023-04-24T14:13:30;9.10;99.90
17813;DHT22;9030;50.792;8.320;2023-04-24T14:15:57;9.00;99.90
17813;DHT22;9030;50.792;8.320;2023-04-24T14:18:24;9.00;99.90
17813;DHT22;9030;50.792;8.320;2023-04-24T14:20:53;8.90;99.90
17813;DHT22;9030;50.792;8.320;2023-04-24T14:23:20;8.80;99.90
17813;DHT22;9030;50.792;8.320;2023-04-24T14:25:47;8.80;99.90
17813;DHT22;9030;50.792;8.320;2023-04-24T14:28:17;9.00;99.90
17813;DHT22;9030;50.792;8.320;2023-04-24T14:30:45;9.40;99.90
17813;DHT22;9030;50.792;8.320;2023-04-24T14:33:16;9.50;99.90
17813;DHT22;9030;50.792;8.320;2023-04-24T14:35:44;9.60;99.90
17813;DHT22;9030;50.792;8.320;2023-04-24T14:38:12;9.80;99.90
17813;DHT22;9030;50.792;8.320;2023-04-24T14:40:39;10.00;99.90
17813;DHT22;9030;50.792;8.320;2023-04-24T14:43:06;9.50;99.90
17813;DHT22;9030;50.792;8.320;2023-04-24T14:45:33;9.40;99.90
17813;DHT22;9030;50.792;8.320;2023-04-24T14:48:00;9.80;99.90
17813;DHT22;9030;50.792;8.320;2023-04-24T14:50:27;9.90;99.90
17813;DHT22;9030;50.792;8.320;2023-04-24T14:52:54;9.80;99.90
17813;DHT22;9030;50.792;8.320;2023-04-24T14:55:24;9.90;99.90
17813;DHT22;9030;50.792;8.320;2023-04-24T14:57:51;9.80;99.90
17813;DHT22;9030;50.792;8.320;2023-04-24T15:00:19;9.60;99.90
17813;DHT22;9030;50.792;8.320;2023-04-24T15:02:48;9.60;99.90
17813;DHT22;9030;50.792;8.320;2023-04-24T15:05:15;9.70;99.90
17813;DHT22;9030;50.792;8.320;2023-04-24T15:07:42;9.60;99.90
17813;DHT22;9030;50.792;8.320;2023-04-24T15:10:09;9.20;99.90
17813;DHT22;9030;50.792;8.320;2023-04-24T15:12:38;8.90;99.90
17813;DHT22;9030;50.792;8.320;2023-04-24T15:15:06;8.70;99.90
17813;DHT22;9030;50.792;8.320;2023-04-24T15:17:33;8.50;99.90
17813;DHT22;9030;50.792;8.320;2023-04-24T15:20:00;8.40;99.90
17813;DHT22;9030;50.792;8.320;2023-04-24T15:22:27;8.30;99.90
17813;DHT22;9030;50.792;8.320;2023-04-24T15:24:53;8.20;99.90
17813;DHT22;9030;50.792;8.320;2023-04-24T15:27:21;8.20;99.90
17813;DHT22;9030;50.792;8.320;2023-04-24T15:29:49;8.40;99.90
17813;DHT22;9030;50.792;8.320;2023-04-24T15:32:16;8.70;99.90
17813;DHT22;9030;50.792;8.320;2023-04-24T15:34:43;9.20;99.90
17813;DHT22;9030;50.792;8.320;2023-04-24T15:37:09;9.50;99.90
17813;DHT22;9030;50.792;8.320;2023-04-24T15:39:36;9.80;99.90
17813;DHT22;9030;50.792;8.320;2023-04-24T15:42:03;10.00;99.90
17813;DHT22;9030;50.792;8.320;2023-04-24T15:44:30;10.00;99.90
17813;DHT22;9030;50.792;8.320;2023-04-24T15:47:00;10.00;99.90
17813;DHT22;9030;50.792;8.320;2023-04-24T15:49:27;9.80;99.90
17813;DHT22;9030;50.792;8.320;2023-04-24T15:51:54;10.10;99.90
17813;DHT22;9030;50.792;8.320;2023-04-24T15:54:20;10.20;99.90
17813;DHT22;9030;50.792;8.320;2023-04-24T15:56:49;10.20;99.90
17813;DHT22;9030;50.792;8.320;2023-04-24T15:59:16;10.10;99.90
17813;DHT22;9030;50.792;8.320;2023-04-24T16:01:43;9.90;99.90
17813;DHT22;9030;50.792;8.320;2023-04-24T16:04:11;9.90;99.90
17813;DHT22;9030;50.792;8.320;2023-04-24T16:06:38;9.50;99.90
17813;DHT22;9030;50.792;8.320;2023-04-24T16:09:05;9.30;99.90